createdAt,value
2019-01-21T00:01:55.000Z,26.7
2019-01-21T00:02:55.000Z,26.7
2019-01-21T00:04:55.000Z,26.7
2019-01-21T00:06:55.000Z,26.7
2019-01-21T00:08:55.000Z,26.7
2019-01-21T00:10:55.000Z,26.7
2019-01-21T00:11:55.000Z,26.7
2019-01-21T00:13:55.000Z,26.7
2019-01-21T00:14:55.000Z,26.7
2019-01-21T00:15:55.000Z,26.7
2019-01-21T00:17:55.000Z,26.7
2019-01-21T00:19:55.000Z,26.7
2019-01-21T00:21:55.000Z,26.7
2019-01-21T00:23:55.000Z,26.7
2019-01-21T00:25:55.000Z,26.7
2019-01-21T00:26:55.000Z,26.7
2019-01-21T00:28:55.000Z,26.7
2019-01-21T00:30:55.000Z,26.7
2019-01-21T00:32:40.000Z,26.7
2019-01-21T00:33:55.000Z,26.7
2019-01-21T00:35:55.000Z,26.7
2019-01-21T00:36:55.000Z,26.7
2019-01-21T00:38:55.000Z,26.7
2019-01-21T00:39:55.000Z,26.7
2019-01-21T00:40:55.000Z,26.7
2019-01-21T00:42:55.000Z,26.7
2019-01-21T00:44:55.000Z,26.7
2019-01-21T00:46:55.000Z,26.6
2019-01-21T00:48:55.000Z,26.7
2019-01-21T00:50:40.000Z,26.7
2019-01-21T00:51:55.000Z,26.7
2019-01-21T00:53:56.000Z,26.7
2019-01-21T00:54:56.000Z,26.7
2019-01-21T00:55:56.000Z,26.7
2019-01-21T00:57:56.000Z,26.6
2019-01-21T00:59:56.000Z,26.6
2019-01-21T01:01:56.000Z,26.6
2019-01-21T01:03:56.000Z,26.6
2019-01-21T01:05:56.000Z,26.6
2019-01-21T01:06:56.000Z,26.6
2019-01-21T01:08:56.000Z,26.6
2019-01-21T01:10:56.000Z,26.6
2019-01-21T01:11:56.000Z,26.6
2019-01-21T01:13:56.000Z,26.6
2019-01-21T01:15:41.000Z,26.6
2019-01-21T01:16:56.000Z,26.6
2019-01-21T01:18:56.000Z,26.6
2019-01-21T01:19:56.000Z,26.6
2019-01-21T01:20:56.000Z,26.6
2019-01-21T01:22:56.000Z,26.6
2019-01-21T01:24:56.000Z,26.6
2019-01-21T01:26:56.000Z,26.6
2019-01-21T01:27:56.000Z,26.6
2019-01-21T01:29:56.000Z,26.6
2019-01-21T01:31:56.000Z,26.6
2019-01-21T01:32:56.000Z,26.6
2019-01-21T01:34:56.000Z,26.6
2019-01-21T01:36:56.000Z,26.6
2019-01-21T01:38:56.000Z,26.6
2019-01-21T01:40:56.000Z,26.6
2019-01-21T01:42:56.000Z,26.6
2019-01-21T01:44:56.000Z,26.6
2019-01-21T01:46:56.000Z,26.6
2019-01-21T01:48:56.000Z,26.5
2019-01-21T01:49:56.000Z,26.5
2019-01-21T01:51:56.000Z,26.5
2019-01-21T01:53:56.000Z,26.6
2019-01-21T01:55:41.000Z,26.6
2019-01-21T01:56:41.000Z,26.5
2019-01-21T01:57:56.000Z,26.6
2019-01-21T01:59:56.000Z,26.6
2019-01-21T02:01:56.000Z,26.6
2019-01-21T02:03:56.000Z,26.5
2019-01-21T02:04:56.000Z,26.5
2019-01-21T02:06:56.000Z,26.5
2019-01-21T02:08:56.000Z,26.5
2019-01-21T02:10:56.000Z,26.5
2019-01-21T02:12:56.000Z,26.5
2019-01-21T02:14:56.000Z,26.5
2019-01-21T02:15:56.000Z,26.5
2019-01-21T02:17:56.000Z,26.6
2019-01-21T02:19:56.000Z,26.5
2019-01-21T02:20:56.000Z,26.6
2019-01-21T02:22:56.000Z,26.6
2019-01-21T02:23:56.000Z,26.6
2019-01-21T02:25:56.000Z,26.5
2019-01-21T02:27:56.000Z,26.5
2019-01-21T02:29:56.000Z,26.6
2019-01-21T02:31:56.000Z,26.5
2019-01-21T02:32:56.000Z,26.5
2019-01-21T02:34:56.000Z,26.5
2019-01-21T02:36:41.000Z,26.5
2019-01-21T02:37:56.000Z,26.5
2019-01-21T02:39:41.000Z,26.5
2019-01-21T02:40:56.000Z,26.5
2019-01-21T02:41:56.000Z,26.5
2019-01-21T02:43:56.000Z,26.5
2019-01-21T02:44:56.000Z,26.5
2019-01-21T02:45:56.000Z,26.5
2019-01-21T02:46:56.000Z,26.5
2019-01-21T02:48:56.000Z,26.5
2019-01-21T02:49:56.000Z,26.5
2019-01-21T02:51:56.000Z,26.5
2019-01-21T02:53:56.000Z,26.5
2019-01-21T02:55:56.000Z,26.5
2019-01-21T02:57:56.000Z,26.5
2019-01-21T02:58:56.000Z,26.5
2019-01-21T03:00:56.000Z,26.5
2019-01-21T03:01:56.000Z,26.5
2019-01-21T03:03:56.000Z,26.5
2019-01-21T03:05:56.000Z,26.5
2019-01-21T03:07:56.000Z,26.5
2019-01-21T03:09:56.000Z,26.5
2019-01-21T03:11:40.000Z,26.5
2019-01-21T03:12:56.000Z,26.5
2019-01-21T03:14:40.000Z,26.5
2019-01-21T03:15:56.000Z,26.5
2019-01-21T03:17:56.000Z,26.4
2019-01-21T03:19:56.000Z,26.5
2019-01-21T03:21:41.000Z,26.5
2019-01-21T03:22:56.000Z,26.5
2019-01-21T03:23:56.000Z,26.5
2019-01-21T03:25:56.000Z,26.5
2019-01-21T03:27:56.000Z,26.5
2019-01-21T03:28:56.000Z,26.5
2019-01-21T03:29:56.000Z,26.5
2019-01-21T03:31:56.000Z,26.5
2019-01-21T03:32:56.000Z,26.5
2019-01-21T03:34:56.000Z,26.5
2019-01-21T03:36:40.000Z,26.5
2019-01-21T03:37:56.000Z,26.5
2019-01-21T03:39:56.000Z,26.5
2019-01-21T03:40:56.000Z,26.5
2019-01-21T03:42:40.000Z,26.5
2019-01-21T03:43:56.000Z,26.5
2019-01-21T03:45:56.000Z,26.5
2019-01-21T03:46:56.000Z,26.5
2019-01-21T03:48:56.000Z,26.5
2019-01-21T03:49:56.000Z,26.5
2019-01-21T03:50:56.000Z,26.5
2019-01-21T03:51:56.000Z,26.5
2019-01-21T03:53:40.000Z,26.5
2019-01-21T03:54:56.000Z,26.5
2019-01-21T03:56:56.000Z,26.5
2019-01-21T03:58:56.000Z,26.5
2019-01-21T03:59:56.000Z,26.5
2019-01-21T04:01:56.000Z,26.4
2019-01-21T04:03:56.000Z,26.5
2019-01-21T04:05:56.000Z,26.5
2019-01-21T04:06:56.000Z,26.5
2019-01-21T04:08:40.000Z,26.5
2019-01-21T04:09:55.000Z,26.5
2019-01-21T04:11:55.000Z,26.5
2019-01-21T04:13:55.000Z,26.4
2019-01-21T04:14:55.000Z,26.4
2019-01-21T04:16:55.000Z,26.4
2019-01-21T04:18:55.000Z,26.4
2019-01-21T04:19:55.000Z,26.4
2019-01-21T04:20:55.000Z,26.4
2019-01-21T04:22:55.000Z,26.4
2019-01-21T04:24:55.000Z,26.5
2019-01-21T04:25:55.000Z,26.5
2019-01-21T04:26:55.000Z,26.5
2019-01-21T04:27:55.000Z,26.5
2019-01-21T04:29:40.000Z,26.5
2019-01-21T04:30:55.000Z,26.5
2019-01-21T04:31:55.000Z,26.4
2019-01-21T04:33:55.000Z,26.4
2019-01-21T04:35:55.000Z,26.4
2019-01-21T04:37:55.000Z,26.4
2019-01-21T04:39:55.000Z,26.4
2019-01-21T04:40:55.000Z,26.4
2019-01-21T04:42:55.000Z,26.4
2019-01-21T04:43:55.000Z,26.5
2019-01-21T04:45:55.000Z,26.4
2019-01-21T04:47:40.000Z,26.4
2019-01-21T04:48:55.000Z,26.4
2019-01-21T04:50:55.000Z,26.4
2019-01-21T04:52:55.000Z,26.4
2019-01-21T04:53:55.000Z,26.4
2019-01-21T04:54:55.000Z,26.4
2019-01-21T04:56:55.000Z,26.4
2019-01-21T04:58:55.000Z,26.4
2019-01-21T04:59:55.000Z,26.4
2019-01-21T05:01:55.000Z,26.4
2019-01-21T05:03:40.000Z,26.4
2019-01-21T05:04:55.000Z,26.4
2019-01-21T05:06:55.000Z,26.4
2019-01-21T05:08:55.000Z,26.4
2019-01-21T05:10:55.000Z,26.4
2019-01-21T05:12:55.000Z,26.4
2019-01-21T05:13:55.000Z,26.4
2019-01-21T05:15:55.000Z,26.4
2019-01-21T05:17:55.000Z,26.3
2019-01-21T05:19:55.000Z,26.4
2019-01-21T05:21:55.000Z,26.4
2019-01-21T05:22:55.000Z,26.4
2019-01-21T05:24:55.000Z,26.4
2019-01-21T05:26:55.000Z,26.4
2019-01-21T05:28:40.000Z,26.3
2019-01-21T05:29:55.000Z,26.3
2019-01-21T05:30:55.000Z,26.3
2019-01-21T05:32:55.000Z,26.3
2019-01-21T05:34:55.000Z,26.3
2019-01-21T05:36:55.000Z,26.3
2019-01-21T05:37:55.000Z,26.3
2019-01-21T05:38:55.000Z,26.3
2019-01-21T05:40:55.000Z,26.4
2019-01-21T05:42:55.000Z,26.4
2019-01-21T05:43:55.000Z,26.4
2019-01-21T05:45:55.000Z,26.5
2019-01-21T05:46:55.000Z,26.5
2019-01-21T05:48:40.000Z,26.6
2019-01-21T05:49:55.000Z,26.6
2019-01-21T05:50:55.000Z,26.6
2019-01-21T05:52:55.000Z,26.7
2019-01-21T05:54:55.000Z,26.7
2019-01-21T05:55:55.000Z,26.7
2019-01-21T05:57:55.000Z,26.8
2019-01-21T05:59:55.000Z,26.8
2019-01-21T06:01:55.000Z,26.8
2019-01-21T06:02:55.000Z,26.8
2019-01-21T06:04:55.000Z,26.8
2019-01-21T06:05:55.000Z,26.9
2019-01-21T06:06:55.000Z,26.9
2019-01-21T06:07:55.000Z,26.9
2019-01-21T06:09:55.000Z,27
2019-01-21T06:10:55.000Z,27
2019-01-21T06:11:55.000Z,27
2019-01-21T06:12:55.000Z,27
2019-01-21T06:14:55.000Z,27
2019-01-21T06:16:55.000Z,27.1
2019-01-21T06:17:55.000Z,27.1
2019-01-21T06:18:55.000Z,27.1
2019-01-21T06:20:55.000Z,27.2
2019-01-21T06:22:55.000Z,27.2
2019-01-21T06:24:55.000Z,27.2
2019-01-21T06:26:55.000Z,27.2
2019-01-21T06:28:55.000Z,27.2
2019-01-21T06:30:55.000Z,27.3
2019-01-21T06:31:55.000Z,27.3
2019-01-21T06:33:40.000Z,27.3
2019-01-21T06:34:55.000Z,27.3
2019-01-21T06:35:55.000Z,27.3
2019-01-21T06:36:55.000Z,27.3
2019-01-21T06:38:55.000Z,27.4
2019-01-21T06:40:40.000Z,27.4
2019-01-21T06:41:55.000Z,27.4
2019-01-21T06:43:40.000Z,27.4
2019-01-21T06:44:55.000Z,27.4
2019-01-21T06:46:55.000Z,27.5
2019-01-21T06:48:55.000Z,27.5
2019-01-21T06:49:55.000Z,27.5
2019-01-21T06:50:55.000Z,27.6
2019-01-21T06:52:55.000Z,27.6
2019-01-21T06:54:55.000Z,27.6
2019-01-21T06:55:55.000Z,27.6
2019-01-21T06:57:55.000Z,27.6
2019-01-21T06:58:55.000Z,27.7
2019-01-21T07:00:55.000Z,27.7
2019-01-21T07:01:55.000Z,27.7
2019-01-21T07:02:55.000Z,27.7
2019-01-21T07:04:55.000Z,27.7
2019-01-21T07:06:55.000Z,27.6
2019-01-21T07:07:55.000Z,27.6
2019-01-21T07:08:55.000Z,27.6
2019-01-21T07:10:55.000Z,27.6
2019-01-21T07:11:55.000Z,27.6
2019-01-21T07:13:55.000Z,27.6
2019-01-21T07:15:55.000Z,27.6
2019-01-21T07:17:55.000Z,27.6
2019-01-21T07:19:55.000Z,27.6
2019-01-21T07:20:55.000Z,27.6
2019-01-21T07:22:56.000Z,27.6
2019-01-21T07:23:56.000Z,27.6
2019-01-21T07:24:56.000Z,27.7
2019-01-21T07:26:56.000Z,27.7
2019-01-21T07:27:56.000Z,27.7
2019-01-21T07:29:56.000Z,27.7
2019-01-21T07:31:56.000Z,27.7
2019-01-21T07:33:41.000Z,27.7
2019-01-21T07:34:56.000Z,27.7
2019-01-21T07:35:56.000Z,27.7
2019-01-21T07:36:56.000Z,27.8
2019-01-21T07:37:56.000Z,27.8
2019-01-21T07:39:56.000Z,27.8
2019-01-21T07:40:56.000Z,27.8
2019-01-21T07:42:56.000Z,27.8
2019-01-21T07:43:56.000Z,27.8
2019-01-21T07:44:56.000Z,27.8
2019-01-21T07:46:56.000Z,27.8
2019-01-21T07:48:56.000Z,27.9
2019-01-21T07:50:41.000Z,27.9
2019-01-21T07:51:56.000Z,28
2019-01-21T07:52:56.000Z,28
2019-01-21T07:54:56.000Z,28.1
2019-01-21T07:56:56.000Z,28.1
2019-01-21T07:57:56.000Z,28.2
2019-01-21T07:59:56.000Z,28.2
2019-01-21T08:00:56.000Z,28.3
2019-01-21T08:01:56.000Z,28.3
2019-01-21T08:03:56.000Z,28.4
2019-01-21T08:04:56.000Z,28.4
2019-01-21T08:06:56.000Z,28.5
2019-01-21T08:08:41.000Z,28.6
2019-01-21T08:09:56.000Z,28.6
2019-01-21T08:10:56.000Z,28.7
2019-01-21T08:12:56.000Z,28.7
2019-01-21T08:14:56.000Z,28.7
2019-01-21T08:16:56.000Z,28.8
2019-01-21T08:17:56.000Z,28.9
2019-01-21T08:18:56.000Z,28.9
2019-01-21T08:20:56.000Z,29
2019-01-21T08:21:56.000Z,29
2019-01-21T08:22:56.000Z,29
2019-01-21T08:24:56.000Z,29.1
2019-01-21T08:26:40.000Z,29.2
2019-01-21T08:27:55.000Z,29.2
2019-01-21T08:29:55.000Z,29.3
2019-01-21T08:30:55.000Z,29.3
2019-01-21T08:31:55.000Z,29.4
2019-01-21T08:33:55.000Z,29.5
2019-01-21T08:35:55.000Z,29.4
2019-01-21T08:36:55.000Z,29.4
2019-01-21T08:38:55.000Z,29.3
2019-01-21T08:40:55.000Z,29.3
2019-01-21T08:42:55.000Z,29.3
2019-01-21T08:43:55.000Z,29.3
2019-01-21T08:44:55.000Z,29.3
2019-01-21T08:46:55.000Z,29.3
2019-01-21T08:47:55.000Z,29.3
2019-01-21T08:49:55.000Z,29.3
2019-01-21T08:51:55.000Z,29.3
2019-01-21T08:53:55.000Z,29.3
2019-01-21T08:54:55.000Z,29.3
2019-01-21T08:56:55.000Z,29.3
2019-01-21T08:58:55.000Z,29.3
2019-01-21T09:00:55.000Z,29.3
2019-01-21T09:01:55.000Z,29.3
2019-01-21T09:02:55.000Z,29.3
2019-01-21T09:04:55.000Z,29.4
2019-01-21T09:05:55.000Z,29.4
2019-01-21T09:07:55.000Z,29.4
2019-01-21T09:09:55.000Z,29.4
2019-01-21T09:10:55.000Z,29.4
2019-01-21T09:12:55.000Z,29.4
2019-01-21T09:13:55.000Z,29.5
2019-01-21T09:15:55.000Z,29.5
2019-01-21T09:17:55.000Z,29.5
2019-01-21T09:19:55.000Z,29.5
2019-01-21T09:20:55.000Z,29.5
2019-01-21T09:22:55.000Z,29.5
2019-01-21T09:23:55.000Z,29.5
2019-01-21T09:25:55.000Z,29.6
2019-01-21T09:26:55.000Z,29.6
2019-01-21T09:28:55.000Z,29.6
2019-01-21T09:30:56.000Z,29.6
2019-01-21T09:31:56.000Z,29.6
2019-01-21T09:32:56.000Z,29.6
2019-01-21T09:33:56.000Z,29.7
2019-01-21T09:35:56.000Z,29.7
2019-01-21T09:37:56.000Z,29.8
2019-01-21T09:38:56.000Z,29.8
2019-01-21T09:39:56.000Z,29.8
2019-01-21T09:41:56.000Z,29.8
2019-01-21T09:43:56.000Z,29.8
2019-01-21T09:45:56.000Z,29.8
2019-01-21T09:46:56.000Z,29.8
2019-01-21T09:47:56.000Z,29.8
2019-01-21T09:49:41.000Z,29.9
2019-01-21T09:50:56.000Z,29.9
2019-01-21T09:51:56.000Z,29.9
2019-01-21T09:52:56.000Z,29.9
2019-01-21T09:54:56.000Z,29.9
2019-01-21T09:56:56.000Z,29.9
2019-01-21T09:58:56.000Z,29.9
2019-01-21T10:00:56.000Z,29.9
2019-01-21T10:01:56.000Z,29.9
2019-01-21T10:03:56.000Z,30
2019-01-21T10:04:56.000Z,30
2019-01-21T10:05:56.000Z,30
2019-01-21T10:07:56.000Z,30
2019-01-21T10:08:56.000Z,30
2019-01-21T10:09:56.000Z,30.1
2019-01-21T10:10:56.000Z,30
2019-01-21T10:12:56.000Z,30
2019-01-21T10:14:56.000Z,30
2019-01-21T10:15:56.000Z,30
2019-01-21T10:17:41.000Z,30
2019-01-21T10:18:56.000Z,30
2019-01-21T10:19:56.000Z,30
2019-01-21T10:20:56.000Z,30
2019-01-21T10:22:56.000Z,29.9
2019-01-21T10:24:56.000Z,29.9
2019-01-21T10:25:56.000Z,29.9
2019-01-21T10:26:56.000Z,29.9
2019-01-21T10:28:41.000Z,29.9
2019-01-21T10:29:56.000Z,29.9
2019-01-21T10:30:56.000Z,29.9
2019-01-21T10:32:56.000Z,29.9
2019-01-21T10:34:56.000Z,29.9
2019-01-21T10:36:56.000Z,30
2019-01-21T10:38:56.000Z,30
2019-01-21T10:40:56.000Z,30
2019-01-21T10:42:56.000Z,30
2019-01-21T10:44:56.000Z,30
2019-01-21T10:46:56.000Z,30
2019-01-21T10:48:56.000Z,30
2019-01-21T10:49:56.000Z,30
2019-01-21T10:51:56.000Z,30
2019-01-21T10:53:56.000Z,30
2019-01-21T10:55:56.000Z,30
2019-01-21T10:57:56.000Z,30
2019-01-21T10:59:56.000Z,30
2019-01-21T11:00:56.000Z,30.1
2019-01-21T11:02:56.000Z,30.1
2019-01-21T11:03:56.000Z,30.1
2019-01-21T11:05:56.000Z,30.1
2019-01-21T11:06:56.000Z,30.1
2019-01-21T11:08:56.000Z,30.1
2019-01-21T11:09:56.000Z,30.1
2019-01-21T11:10:56.000Z,30.1
2019-01-21T11:11:56.000Z,30.1
2019-01-21T11:13:56.000Z,30.1
2019-01-21T11:15:41.000Z,30.1
2019-01-21T11:16:56.000Z,30.2
2019-01-21T11:17:56.000Z,30.2
2019-01-21T11:19:56.000Z,30.3
2019-01-21T11:20:56.000Z,30.3
2019-01-21T11:22:41.000Z,30.2
2019-01-21T11:23:56.000Z,30.2
2019-01-21T11:25:56.000Z,30.3
2019-01-21T11:27:56.000Z,30.3
2019-01-21T11:29:56.000Z,30.3
2019-01-21T11:30:56.000Z,30.3
2019-01-21T11:31:56.000Z,30.2
2019-01-21T11:32:56.000Z,30.2
2019-01-21T11:34:41.000Z,30.3
2019-01-21T11:35:56.000Z,30.3
2019-01-21T11:37:56.000Z,30.3
2019-01-21T11:38:56.000Z,30.4
2019-01-21T11:40:56.000Z,30.4
2019-01-21T11:41:56.000Z,30.4
2019-01-21T11:42:56.000Z,30.4
2019-01-21T11:44:56.000Z,30.5
2019-01-21T11:46:56.000Z,30.5
2019-01-21T11:47:56.000Z,30.5
2019-01-21T11:48:56.000Z,30.5
2019-01-21T11:50:56.000Z,30.5
2019-01-21T11:52:56.000Z,30.5
2019-01-21T11:54:56.000Z,30.6
2019-01-21T11:55:56.000Z,30.6
2019-01-21T11:56:56.000Z,30.6
2019-01-21T11:58:56.000Z,30.6
2019-01-21T12:00:56.000Z,30.6
2019-01-21T12:01:56.000Z,30.5
2019-01-21T12:02:56.000Z,30.5
2019-01-21T12:04:40.000Z,30.5
2019-01-21T12:05:56.000Z,30.5
2019-01-21T12:06:56.000Z,30.6
2019-01-21T12:07:56.000Z,30.6
2019-01-21T12:09:56.000Z,30.6
2019-01-21T12:11:56.000Z,30.6
2019-01-21T12:12:56.000Z,30.6
2019-01-21T12:14:56.000Z,30.6
2019-01-21T12:16:40.000Z,30.6
2019-01-21T12:17:56.000Z,30.6
2019-01-21T12:19:56.000Z,30.6
2019-01-21T12:21:56.000Z,30.6
2019-01-21T12:23:40.000Z,30.6
2019-01-21T12:24:56.000Z,30.6
2019-01-21T12:26:56.000Z,30.6
2019-01-21T12:28:40.000Z,30.6
2019-01-21T12:29:56.000Z,30.6
2019-01-21T12:31:56.000Z,30.6
2019-01-21T12:32:56.000Z,30.6
2019-01-21T12:33:56.000Z,30.6
2019-01-21T12:34:56.000Z,30.6
2019-01-21T12:36:56.000Z,30.6
2019-01-21T12:37:56.000Z,30.6
2019-01-21T12:39:56.000Z,30.6
2019-01-21T12:41:56.000Z,30.6
2019-01-21T12:42:56.000Z,30.6
2019-01-21T12:43:56.000Z,30.6
2019-01-21T12:44:56.000Z,30.6
2019-01-21T12:46:56.000Z,30.6
2019-01-21T12:48:56.000Z,30.6
2019-01-21T12:50:56.000Z,30.6
2019-01-21T12:52:56.000Z,30.7
2019-01-21T12:53:56.000Z,30.6
2019-01-21T12:55:56.000Z,30.6
2019-01-21T12:57:56.000Z,30.6
2019-01-21T12:58:56.000Z,30.6
2019-01-21T13:00:56.000Z,29.9
2019-01-21T13:02:56.000Z,29.1
2019-01-21T13:03:56.000Z,28.8
2019-01-21T13:04:56.000Z,28.5
2019-01-21T13:06:56.000Z,27.7
2019-01-21T13:07:56.000Z,27.4
2019-01-21T13:09:56.000Z,26.9
2019-01-21T13:11:56.000Z,26.5
2019-01-21T13:13:41.000Z,26.2
2019-01-21T13:14:56.000Z,26
2019-01-21T13:15:56.000Z,25.8
2019-01-21T13:17:41.000Z,25.7
2019-01-21T13:18:56.000Z,25.6
2019-01-21T13:19:56.000Z,25.6
2019-01-21T13:21:56.000Z,26
2019-01-21T13:23:56.000Z,26.5
2019-01-21T13:25:56.000Z,27
2019-01-21T13:26:56.000Z,27.2
2019-01-21T13:27:56.000Z,27.4
2019-01-21T13:29:41.000Z,27.6
2019-01-21T13:30:56.000Z,27.8
2019-01-21T13:31:56.000Z,28
2019-01-21T13:33:56.000Z,28.2
2019-01-21T13:34:56.000Z,28.3
2019-01-21T13:36:56.000Z,28.5
2019-01-21T13:37:56.000Z,28.6
2019-01-21T13:39:56.000Z,28.8
2019-01-21T13:40:56.000Z,28.8
2019-01-21T13:42:56.000Z,29
2019-01-21T13:43:56.000Z,29
2019-01-21T13:45:56.000Z,29.1
2019-01-21T13:47:55.000Z,29.2
2019-01-21T13:49:55.000Z,29.3
2019-01-21T13:51:55.000Z,29.4
2019-01-21T13:53:55.000Z,29.4
2019-01-21T13:55:55.000Z,29.5
2019-01-21T13:57:55.000Z,29.5
2019-01-21T13:58:55.000Z,29.6
2019-01-21T13:59:55.000Z,29.6
2019-01-21T14:01:55.000Z,29.6
2019-01-21T14:03:55.000Z,29.5
2019-01-21T14:04:55.000Z,29.1
2019-01-21T14:05:55.000Z,28.7
2019-01-21T14:07:55.000Z,27.7
2019-01-21T14:08:55.000Z,27.3
2019-01-21T14:10:55.000Z,26.7
2019-01-21T14:12:55.000Z,26.2
2019-01-21T14:13:55.000Z,26.1
2019-01-21T14:15:55.000Z,25.8
2019-01-21T14:16:55.000Z,25.8
2019-01-21T14:18:55.000Z,26.1
2019-01-21T14:19:55.000Z,26.3
2019-01-21T14:21:55.000Z,26.7
2019-01-21T14:22:55.000Z,26.9
2019-01-21T14:23:55.000Z,27.1
2019-01-21T14:25:40.000Z,27.4
2019-01-21T14:26:55.000Z,27.6
2019-01-21T14:27:55.000Z,27.8
2019-01-21T14:29:55.000Z,28
2019-01-21T14:30:55.000Z,28.1
2019-01-21T14:32:55.000Z,28.3
2019-01-21T14:33:55.000Z,28.4
2019-01-21T14:35:55.000Z,28.5
2019-01-21T14:37:55.000Z,28.7
2019-01-21T14:39:55.000Z,28.8
2019-01-21T14:40:55.000Z,28.8
2019-01-21T14:42:55.000Z,28.9
2019-01-21T14:43:55.000Z,28.9
2019-01-21T14:44:55.000Z,29
2019-01-21T14:45:55.000Z,29
2019-01-21T14:47:55.000Z,29
2019-01-21T14:48:55.000Z,29.1
2019-01-21T14:50:55.000Z,29.1
2019-01-21T14:51:55.000Z,29.1
2019-01-21T14:53:55.000Z,29.1
2019-01-21T14:54:55.000Z,29.2
2019-01-21T14:55:55.000Z,29.2
2019-01-21T14:57:55.000Z,29.2
2019-01-21T14:58:55.000Z,29.2
2019-01-21T15:00:40.000Z,29.2
2019-01-21T15:01:55.000Z,29.3
2019-01-21T15:03:55.000Z,29.3
2019-01-21T15:04:55.000Z,29.3
2019-01-21T15:06:55.000Z,29.3
2019-01-21T15:07:55.000Z,29.3
2019-01-21T15:09:55.000Z,29.3
2019-01-21T15:11:55.000Z,29.3
2019-01-21T15:12:55.000Z,29.3
2019-01-21T15:14:41.000Z,29.3
2019-01-21T15:16:40.000Z,29.3
2019-01-21T15:17:55.000Z,29.3
2019-01-21T15:18:55.000Z,29.3
2019-01-21T15:20:40.000Z,29.3
2019-01-21T15:21:55.000Z,29.3
2019-01-21T15:23:40.000Z,29.2
2019-01-21T15:25:55.000Z,29.3
2019-01-21T15:27:55.000Z,29.3
2019-01-21T15:29:40.000Z,29.3
2019-01-21T15:30:40.000Z,29.3
2019-01-21T15:31:55.000Z,29.3
2019-01-21T15:33:40.000Z,29.2
2019-01-21T15:34:40.000Z,29.3
2019-01-21T15:35:55.000Z,29.3
2019-01-21T15:36:55.000Z,29.3
2019-01-21T15:37:55.000Z,29.3
2019-01-21T15:39:40.000Z,29.3
2019-01-21T15:40:55.000Z,29.3
2019-01-21T15:42:55.000Z,29.3
2019-01-21T15:44:40.000Z,29.3
2019-01-21T15:46:55.000Z,29.3
2019-01-21T15:48:55.000Z,29.3
2019-01-21T17:30:23.000Z,28.8
2019-01-21T17:32:09.000Z,28.8
2019-01-21T17:33:09.000Z,28.8
2019-01-21T17:34:09.000Z,28.8
2019-01-21T17:35:09.000Z,28.8
2019-01-21T17:36:09.000Z,28.8
2019-01-21T17:37:09.000Z,28.8
2019-01-21T17:38:09.000Z,28.8
2019-01-21T17:40:09.000Z,28.9
2019-01-21T17:42:09.000Z,28.9
2019-01-21T17:43:53.000Z,28.9
2019-01-21T17:45:09.000Z,28.9
2019-01-21T17:46:09.000Z,28.9
2019-01-21T17:48:09.000Z,28.9
2019-01-21T17:50:09.000Z,28.9
2019-01-21T17:52:09.000Z,28.9
2019-01-21T17:54:09.000Z,28.8
2019-01-21T17:55:09.000Z,28.8
2019-01-21T17:56:53.000Z,28.9
2019-01-21T17:58:09.000Z,28.8
2019-01-21T18:00:09.000Z,28.8
2019-01-21T18:01:09.000Z,28.8
2019-01-21T18:02:09.000Z,28.9
2019-01-21T18:03:09.000Z,28.8
2019-01-21T18:05:08.000Z,28.9
2019-01-21T18:07:08.000Z,28.8
2019-01-21T18:09:08.000Z,28.9
2019-01-21T18:10:08.000Z,28.9
2019-01-21T18:12:08.000Z,28.8
2019-01-21T18:13:08.000Z,28.8
2019-01-21T18:15:08.000Z,28.8
2019-01-21T18:16:08.000Z,28.8
2019-01-21T18:18:08.000Z,28.8
2019-01-21T18:19:08.000Z,28.8
2019-01-21T18:20:08.000Z,28.8
2019-01-21T18:21:08.000Z,28.8
2019-01-21T18:23:08.000Z,28.8
2019-01-21T18:24:53.000Z,28.8
2019-01-21T18:26:08.000Z,28.8
2019-01-21T18:28:08.000Z,28.8
2019-01-21T18:29:08.000Z,28.8
2019-01-21T18:30:08.000Z,28.8
2019-01-21T18:32:08.000Z,28.8
2019-01-21T18:34:08.000Z,28.8
2019-01-21T18:36:08.000Z,28.8
2019-01-21T18:38:08.000Z,28.8
2019-01-21T18:40:08.000Z,28.7
2019-01-21T18:41:08.000Z,28.7
2019-01-21T18:43:08.000Z,28.7
2019-01-21T18:45:08.000Z,28.7
2019-01-21T18:47:08.000Z,28.7
2019-01-21T18:49:08.000Z,28.7
2019-01-21T18:50:08.000Z,28.7
2019-01-21T18:52:08.000Z,28.7
2019-01-21T18:54:08.000Z,28.7
2019-01-21T18:56:08.000Z,28.7
2019-01-21T18:57:08.000Z,28.7
2019-01-21T18:59:08.000Z,28.7
2019-01-21T19:00:53.000Z,28.7
2019-01-21T19:02:08.000Z,28.7
2019-01-21T19:04:08.000Z,28.7
2019-01-21T19:05:08.000Z,28.7
2019-01-21T19:07:08.000Z,28.7
2019-01-21T19:09:08.000Z,28.7
2019-01-21T19:11:08.000Z,28.7
2019-01-21T19:12:08.000Z,28.7
2019-01-21T19:13:53.000Z,28.7
2019-01-21T19:15:08.000Z,28.7
2019-01-21T19:16:08.000Z,28.7
2019-01-21T19:17:08.000Z,28.7
2019-01-21T19:19:08.000Z,28.7
2019-01-21T19:20:08.000Z,28.7
2019-01-21T19:21:08.000Z,28.7
2019-01-21T19:23:08.000Z,28.7
2019-01-21T19:24:08.000Z,28.7
2019-01-21T19:25:53.000Z,28.7
2019-01-21T19:27:08.000Z,28.7
2019-01-21T19:28:08.000Z,28.7
2019-01-21T19:30:08.000Z,28.7
2019-01-21T19:31:08.000Z,28.7
2019-01-21T19:33:08.000Z,28.7
2019-01-21T19:34:08.000Z,28.7
2019-01-21T19:35:08.000Z,28.7
2019-01-21T19:37:08.000Z,28.7
2019-01-21T19:39:08.000Z,28.6
2019-01-21T19:41:08.000Z,28.6
2019-01-21T19:42:08.000Z,28.6
2019-01-21T19:44:08.000Z,28.6
2019-01-21T19:46:08.000Z,28.6
2019-01-21T19:48:08.000Z,28.6
2019-01-21T19:49:53.000Z,28.6
2019-01-21T19:51:08.000Z,28.6
2019-01-21T19:53:08.000Z,28.6
2019-01-21T19:55:08.000Z,28.6
2019-01-21T19:57:08.000Z,28.6
2019-01-21T19:58:08.000Z,28.6
2019-01-21T19:59:08.000Z,28.6
2019-01-21T20:00:08.000Z,28.6
2019-01-21T20:01:08.000Z,28.6
2019-01-21T20:03:08.000Z,28.6
2019-01-21T20:05:08.000Z,28.5
2019-01-21T20:07:08.000Z,28.5
2019-01-21T20:08:08.000Z,28.5
2019-01-21T20:10:08.000Z,28.5
2019-01-21T20:12:08.000Z,28.5
2019-01-21T20:13:08.000Z,28.5
2019-01-21T20:14:08.000Z,28.5
2019-01-21T20:16:08.000Z,28.5
2019-01-21T20:18:08.000Z,28.5
2019-01-21T20:19:08.000Z,28.5
2019-01-21T20:21:08.000Z,28.4
2019-01-21T20:22:53.000Z,28.4
2019-01-21T20:24:08.000Z,28.4
2019-01-21T20:25:08.000Z,28.4
2019-01-21T20:27:08.000Z,28.4
2019-01-21T20:28:08.000Z,28.4
2019-01-21T20:30:08.000Z,28.4
2019-01-21T20:32:08.000Z,28.4
2019-01-21T20:34:08.000Z,28.4
2019-01-21T20:36:08.000Z,28.4
2019-01-21T20:38:08.000Z,28.4
2019-01-21T20:39:08.000Z,28.4
2019-01-21T20:40:08.000Z,28.4
2019-01-21T20:42:08.000Z,28.4
2019-01-21T20:43:08.000Z,28.4
2019-01-21T20:45:08.000Z,28.4
2019-01-21T20:46:53.000Z,28.4
2019-01-21T20:48:08.000Z,28.4
2019-01-21T20:49:08.000Z,28.4
2019-01-21T20:50:08.000Z,28.3
2019-01-21T20:52:08.000Z,28.3
2019-01-21T20:54:08.000Z,28.3
2019-01-21T20:55:08.000Z,28.3
2019-01-21T20:57:08.000Z,28.3
2019-01-21T20:59:08.000Z,28.3
2019-01-21T21:00:08.000Z,28.3
2019-01-21T21:02:08.000Z,28.3
2019-01-21T21:03:08.000Z,28.3
2019-01-21T21:05:08.000Z,28.3
2019-01-21T21:06:08.000Z,28.3
2019-01-21T21:08:08.000Z,28.3
2019-01-21T21:10:08.000Z,28.3
2019-01-21T21:11:08.000Z,28.3
2019-01-21T21:12:08.000Z,28.3
2019-01-21T21:14:08.000Z,28.3
2019-01-21T21:16:08.000Z,28.3
2019-01-21T21:18:08.000Z,28.3
2019-01-21T21:20:08.000Z,28.3
2019-01-21T21:22:08.000Z,28.3
2019-01-21T21:24:08.000Z,28.2
2019-01-21T21:26:08.000Z,28.2
2019-01-21T21:28:08.000Z,28.2
2019-01-21T21:29:08.000Z,28.2
2019-01-21T21:30:08.000Z,28.2
2019-01-21T21:32:08.000Z,28.2
2019-01-21T21:34:08.000Z,28.2
2019-01-21T21:35:08.000Z,28.2
2019-01-21T21:37:08.000Z,28.2
2019-01-21T21:39:08.000Z,28.2
2019-01-21T21:40:53.000Z,28.2
2019-01-21T21:42:08.000Z,28.2
2019-01-21T21:44:08.000Z,28.2
2019-01-21T21:46:08.000Z,28.2
2019-01-21T21:48:08.000Z,28.2
2019-01-21T21:49:53.000Z,28.2
2019-01-21T21:51:08.000Z,28.2
2019-01-21T21:53:08.000Z,28.2
2019-01-21T21:54:53.000Z,28.2
2019-01-21T21:56:08.000Z,28.2
2019-01-21T21:57:53.000Z,28.2
2019-01-21T21:59:08.000Z,28.1
2019-01-21T22:01:08.000Z,28.1
2019-01-21T22:02:08.000Z,28.1
2019-01-21T22:04:08.000Z,28.1
2019-01-21T22:06:08.000Z,28.1
2019-01-21T22:07:53.000Z,28.1
2019-01-21T22:09:08.000Z,28.1
2019-01-21T22:10:08.000Z,28.1
2019-01-21T22:12:08.000Z,28.1
2019-01-21T22:14:08.000Z,28.1
2019-01-21T22:16:08.000Z,28.1
2019-01-21T22:18:08.000Z,28.1
2019-01-21T22:20:08.000Z,28.1
2019-01-21T22:21:08.000Z,28.1
2019-01-21T22:22:09.000Z,28.1
2019-01-21T22:23:53.000Z,28.1
2019-01-21T22:25:09.000Z,28.1
2019-01-21T22:27:09.000Z,28
2019-01-21T22:29:09.000Z,28
2019-01-21T22:30:09.000Z,28
2019-01-21T22:31:53.000Z,28
2019-01-21T22:33:09.000Z,28
2019-01-21T22:34:09.000Z,28
2019-01-21T22:36:09.000Z,28
2019-01-21T22:38:09.000Z,28
2019-01-21T22:39:09.000Z,28
2019-01-21T22:41:09.000Z,28.1
2019-01-21T22:43:09.000Z,28.1
2019-01-21T22:44:09.000Z,28.1